sensor_id;sensor_type;location;lat;lon;timestamp;P1;durP1;ratioP1;P2;durP2;ratioP2
35324;SDS011;35135;47.510;19.036;2023-11-21T00:01:41;4.88;;;2.50;;
35324;SDS011;35135;47.510;19.036;2023-11-21T00:04:06;3.50;;;2.33;;
35324;SDS011;35135;47.510;19.036;2023-11-21T00:06:32;4.18;;;2.90;;
35324;SDS011;35135;47.510;19.036;2023-11-21T00:08:59;6.53;;;2.75;;
35324;SDS011;35135;47.510;19.036;2023-11-21T00:11:24;4.32;;;2.65;;
35324;SDS011;35135;47.510;19.036;2023-11-21T00:13:50;3.67;;;2.42;;
35324;SDS011;35135;47.510;19.036;2023-11-21T00:16:16;3.88;;;2.55;;
35324;SDS011;35135;47.510;19.036;2023-11-21T00:18:42;3.47;;;2.38;;
35324;SDS011;35135;47.510;19.036;2023-11-21T00:21:08;4.80;;;2.60;;
35324;SDS011;35135;47.510;19.036;2023-11-21T00:23:34;3.00;;;2.13;;
35324;SDS011;35135;47.510;19.036;2023-11-21T00:26:00;3.55;;;2.47;;
35324;SDS011;35135;47.510;19.036;2023-11-21T00:28:26;3.88;;;2.33;;
35324;SDS011;35135;47.510;19.036;2023-11-21T00:30:51;3.65;;;2.35;;
35324;SDS011;35135;47.510;19.036;2023-11-21T00:33:17;4.25;;;2.85;;
35324;SDS011;35135;47.510;19.036;2023-11-21T00:35:43;3.08;;;2.03;;
35324;SDS011;35135;47.510;19.036;2023-11-21T00:38:09;2.63;;;2.08;;
35324;SDS011;35135;47.510;19.036;2023-11-21T00:40:34;2.78;;;2.28;;
35324;SDS011;35135;47.510;19.036;2023-11-21T00:43:00;4.25;;;2.38;;
35324;SDS011;35135;47.510;19.036;2023-11-21T00:45:26;5.32;;;2.42;;
35324;SDS011;35135;47.510;19.036;2023-11-21T00:47:51;2.88;;;2.10;;
35324;SDS011;35135;47.510;19.036;2023-11-21T00:50:17;3.38;;;2.15;;
35324;SDS011;35135;47.510;19.036;2023-11-21T00:52:43;3.17;;;2.03;;
35324;SDS011;35135;47.510;19.036;2023-11-21T00:55:08;4.38;;;2.33;;
35324;SDS011;35135;47.510;19.036;2023-11-21T00:57:35;2.95;;;2.20;;
35324;SDS011;35135;47.510;19.036;2023-11-21T01:00:02;3.22;;;2.42;;
35324;SDS011;35135;47.510;19.036;2023-11-21T01:02:32;3.13;;;2.13;;
35324;SDS011;35135;47.510;19.036;2023-11-21T01:04:58;3.30;;;2.17;;
35324;SDS011;35135;47.510;19.036;2023-11-21T01:07:23;5.13;;;2.85;;
35324;SDS011;35135;47.510;19.036;2023-11-21T01:09:49;3.40;;;2.38;;
35324;SDS011;35135;47.510;19.036;2023-11-21T01:12:15;4.40;;;2.50;;
35324;SDS011;35135;47.510;19.036;2023-11-21T01:14:42;3.45;;;2.25;;
35324;SDS011;35135;47.510;19.036;2023-11-21T01:17:08;3.28;;;2.30;;
35324;SDS011;35135;47.510;19.036;2023-11-21T01:19:33;4.10;;;2.58;;
35324;SDS011;35135;47.510;19.036;2023-11-21T01:21:59;2.58;;;1.88;;
35324;SDS011;35135;47.510;19.036;2023-11-21T01:24:25;3.33;;;2.28;;
35324;SDS011;35135;47.510;19.036;2023-11-21T01:26:50;3.38;;;2.00;;
35324;SDS011;35135;47.510;19.036;2023-11-21T01:29:17;2.78;;;2.25;;
35324;SDS011;35135;47.510;19.036;2023-11-21T01:31:42;3.20;;;2.30;;
35324;SDS011;35135;47.510;19.036;2023-11-21T01:34:08;2.85;;;2.00;;
35324;SDS011;35135;47.510;19.036;2023-11-21T01:36:34;2.92;;;2.20;;
35324;SDS011;35135;47.510;19.036;2023-11-21T01:39:00;3.15;;;2.10;;
35324;SDS011;35135;47.510;19.036;2023-11-21T01:41:26;2.60;;;1.75;;
35324;SDS011;35135;47.510;19.036;2023-11-21T01:43:53;3.20;;;2.38;;
35324;SDS011;35135;47.510;19.036;2023-11-21T01:46:20;2.70;;;2.00;;
35324;SDS011;35135;47.510;19.036;2023-11-21T01:48:46;4.40;;;2.13;;
35324;SDS011;35135;47.510;19.036;2023-11-21T01:51:14;3.55;;;2.05;;
35324;SDS011;35135;47.510;19.036;2023-11-21T01:53:40;3.60;;;1.90;;
35324;SDS011;35135;47.510;19.036;2023-11-21T01:56:06;3.40;;;2.13;;
35324;SDS011;35135;47.510;19.036;2023-11-21T01:58:33;3.13;;;1.95;;
35324;SDS011;35135;47.510;19.036;2023-11-21T02:00:59;4.53;;;1.75;;
35324;SDS011;35135;47.510;19.036;2023-11-21T02:03:25;2.63;;;1.90;;
35324;SDS011;35135;47.510;19.036;2023-11-21T02:05:52;2.90;;;2.00;;
35324;SDS011;35135;47.510;19.036;2023-11-21T02:08:18;2.75;;;2.10;;
35324;SDS011;35135;47.510;19.036;2023-11-21T02:10:44;3.58;;;2.35;;
35324;SDS011;35135;47.510;19.036;2023-11-21T02:13:10;2.33;;;1.77;;
35324;SDS011;35135;47.510;19.036;2023-11-21T02:15:37;2.88;;;1.90;;
35324;SDS011;35135;47.510;19.036;2023-11-21T02:18:03;2.35;;;1.80;;
35324;SDS011;35135;47.510;19.036;2023-11-21T02:20:31;4.43;;;1.75;;
35324;SDS011;35135;47.510;19.036;2023-11-21T02:22:59;3.47;;;1.83;;
35324;SDS011;35135;47.510;19.036;2023-11-21T02:25:26;3.65;;;1.80;;
35324;SDS011;35135;47.510;19.036;2023-11-21T02:27:54;2.33;;;1.80;;
35324;SDS011;35135;47.510;19.036;2023-11-21T02:30:21;3.13;;;2.08;;
35324;SDS011;35135;47.510;19.036;2023-11-21T02:32:47;3.00;;;1.67;;
35324;SDS011;35135;47.510;19.036;2023-11-21T02:35:13;3.40;;;1.65;;
35324;SDS011;35135;47.510;19.036;2023-11-21T02:37:41;2.53;;;1.90;;
35324;SDS011;35135;47.510;19.036;2023-11-21T02:40:08;2.60;;;1.70;;
35324;SDS011;35135;47.510;19.036;2023-11-21T02:42:37;2.20;;;1.58;;
35324;SDS011;35135;47.510;19.036;2023-11-21T02:45:04;3.17;;;1.88;;
35324;SDS011;35135;47.510;19.036;2023-11-21T02:47:31;1.92;;;1.65;;
35324;SDS011;35135;47.510;19.036;2023-11-21T02:49:56;3.47;;;1.80;;
35324;SDS011;35135;47.510;19.036;2023-11-21T02:52:22;2.78;;;1.67;;
35324;SDS011;35135;47.510;19.036;2023-11-21T02:54:48;2.85;;;1.60;;
35324;SDS011;35135;47.510;19.036;2023-11-21T02:57:14;2.90;;;1.80;;
35324;SDS011;35135;47.510;19.036;2023-11-21T02:59:40;2.67;;;1.90;;
35324;SDS011;35135;47.510;19.036;2023-11-21T03:02:05;2.25;;;1.60;;
35324;SDS011;35135;47.510;19.036;2023-11-21T03:04:34;2.22;;;1.50;;
35324;SDS011;35135;47.510;19.036;2023-11-21T03:07:00;2.85;;;1.70;;
35324;SDS011;35135;47.510;19.036;2023-11-21T03:09:25;4.05;;;1.67;;
35324;SDS011;35135;47.510;19.036;2023-11-21T03:11:55;3.13;;;1.75;;
35324;SDS011;35135;47.510;19.036;2023-11-21T03:14:21;2.45;;;1.70;;
35324;SDS011;35135;47.510;19.036;2023-11-21T03:16:47;3.85;;;1.50;;
35324;SDS011;35135;47.510;19.036;2023-11-21T03:19:14;3.25;;;1.90;;
35324;SDS011;35135;47.510;19.036;2023-11-21T03:21:40;1.85;;;1.45;;
35324;SDS011;35135;47.510;19.036;2023-11-21T03:24:05;3.35;;;1.73;;
35324;SDS011;35135;47.510;19.036;2023-11-21T03:26:32;2.53;;;1.77;;
35324;SDS011;35135;47.510;19.036;2023-11-21T03:28:58;2.35;;;1.63;;
35324;SDS011;35135;47.510;19.036;2023-11-21T03:31:24;2.80;;;1.58;;
35324;SDS011;35135;47.510;19.036;2023-11-21T03:33:49;2.95;;;1.48;;
35324;SDS011;35135;47.510;19.036;2023-11-21T03:36:15;2.63;;;1.70;;
35324;SDS011;35135;47.510;19.036;2023-11-21T03:38:41;2.17;;;1.55;;
35324;SDS011;35135;47.510;19.036;2023-11-21T03:41:07;3.45;;;1.50;;
35324;SDS011;35135;47.510;19.036;2023-11-21T03:43:35;2.00;;;1.50;;
35324;SDS011;35135;47.510;19.036;2023-11-21T03:46:04;2.75;;;1.70;;
35324;SDS011;35135;47.510;19.036;2023-11-21T03:48:30;2.08;;;1.55;;
35324;SDS011;35135;47.510;19.036;2023-11-21T03:50:55;2.35;;;1.70;;
35324;SDS011;35135;47.510;19.036;2023-11-21T03:53:21;2.55;;;1.50;;
35324;SDS011;35135;47.510;19.036;2023-11-21T03:55:47;2.97;;;2.45;;
35324;SDS011;35135;47.510;19.036;2023-11-21T03:58:12;2.55;;;1.35;;
35324;SDS011;35135;47.510;19.036;2023-11-21T04:00:38;2.40;;;1.40;;
35324;SDS011;35135;47.510;19.036;2023-11-21T04:03:04;2.20;;;1.52;;
35324;SDS011;35135;47.510;19.036;2023-11-21T04:05:30;3.10;;;2.08;;
35324;SDS011;35135;47.510;19.036;2023-11-21T04:07:56;2.08;;;1.42;;
35324;SDS011;35135;47.510;19.036;2023-11-21T04:10:21;2.72;;;1.67;;
35324;SDS011;35135;47.510;19.036;2023-11-21T04:12:47;2.97;;;1.52;;
35324;SDS011;35135;47.510;19.036;2023-11-21T04:15:13;2.95;;;1.48;;
35324;SDS011;35135;47.510;19.036;2023-11-21T04:17:39;2.25;;;1.45;;
35324;SDS011;35135;47.510;19.036;2023-11-21T04:20:06;2.45;;;1.42;;
35324;SDS011;35135;47.510;19.036;2023-11-21T04:22:38;2.13;;;1.35;;
35324;SDS011;35135;47.510;19.036;2023-11-21T04:25:09;2.55;;;1.60;;
35324;SDS011;35135;47.510;19.036;2023-11-21T04:27:36;2.83;;;1.77;;
35324;SDS011;35135;47.510;19.036;2023-11-21T04:30:03;2.45;;;1.40;;
35324;SDS011;35135;47.510;19.036;2023-11-21T04:32:30;2.40;;;1.50;;
35324;SDS011;35135;47.510;19.036;2023-11-21T04:34:55;2.60;;;1.40;;
35324;SDS011;35135;47.510;19.036;2023-11-21T04:37:21;2.30;;;1.42;;
35324;SDS011;35135;47.510;19.036;2023-11-21T04:39:47;2.50;;;1.60;;
35324;SDS011;35135;47.510;19.036;2023-11-21T04:42:13;2.40;;;1.42;;
35324;SDS011;35135;47.510;19.036;2023-11-21T04:44:39;3.17;;;1.50;;
35324;SDS011;35135;47.510;19.036;2023-11-21T04:47:06;1.75;;;1.45;;
35324;SDS011;35135;47.510;19.036;2023-11-21T04:49:32;5.95;;;1.90;;
35324;SDS011;35135;47.510;19.036;2023-11-21T04:51:58;2.63;;;1.70;;
35324;SDS011;35135;47.510;19.036;2023-11-21T04:54:24;2.72;;;1.60;;
35324;SDS011;35135;47.510;19.036;2023-11-21T04:56:50;2.53;;;1.67;;
35324;SDS011;35135;47.510;19.036;2023-11-21T04:59:16;2.05;;;1.60;;
35324;SDS011;35135;47.510;19.036;2023-11-21T05:01:41;4.85;;;1.67;;
35324;SDS011;35135;47.510;19.036;2023-11-21T05:04:07;2.10;;;1.48;;
35324;SDS011;35135;47.510;19.036;2023-11-21T05:06:34;2.15;;;1.35;;
35324;SDS011;35135;47.510;19.036;2023-11-21T05:09:00;2.45;;;1.42;;
35324;SDS011;35135;47.510;19.036;2023-11-21T05:11:26;2.97;;;1.40;;
35324;SDS011;35135;47.510;19.036;2023-11-21T05:13:52;2.35;;;1.30;;
35324;SDS011;35135;47.510;19.036;2023-11-21T05:16:21;2.38;;;1.52;;
35324;SDS011;35135;47.510;19.036;2023-11-21T05:18:47;3.00;;;1.38;;
35324;SDS011;35135;47.510;19.036;2023-11-21T05:21:14;4.03;;;1.50;;
35324;SDS011;35135;47.510;19.036;2023-11-21T05:23:40;2.33;;;1.50;;
35324;SDS011;35135;47.510;19.036;2023-11-21T05:26:05;3.38;;;1.58;;
35324;SDS011;35135;47.510;19.036;2023-11-21T05:28:32;4.72;;;1.90;;
35324;SDS011;35135;47.510;19.036;2023-11-21T05:30:58;3.20;;;1.52;;
35324;SDS011;35135;47.510;19.036;2023-11-21T05:33:23;5.60;;;1.65;;
35324;SDS011;35135;47.510;19.036;2023-11-21T05:35:50;4.50;;;1.73;;
35324;SDS011;35135;47.510;19.036;2023-11-21T05:38:15;3.97;;;1.85;;
35324;SDS011;35135;47.510;19.036;2023-11-21T05:40:41;3.08;;;1.80;;
35324;SDS011;35135;47.510;19.036;2023-11-21T05:43:08;3.63;;;1.40;;
35324;SDS011;35135;47.510;19.036;2023-11-21T05:45:35;4.10;;;1.67;;
35324;SDS011;35135;47.510;19.036;2023-11-21T05:48:02;10.55;;;1.80;;
35324;SDS011;35135;47.510;19.036;2023-11-21T05:50:27;4.15;;;1.65;;
35324;SDS011;35135;47.510;19.036;2023-11-21T05:52:53;2.05;;;1.33;;
35324;SDS011;35135;47.510;19.036;2023-11-21T05:55:19;2.90;;;1.60;;
35324;SDS011;35135;47.510;19.036;2023-11-21T05:57:46;4.95;;;1.33;;
35324;SDS011;35135;47.510;19.036;2023-11-21T06:00:12;3.80;;;1.77;;
35324;SDS011;35135;47.510;19.036;2023-11-21T06:02:52;5.25;;;1.98;;
35324;SDS011;35135;47.510;19.036;2023-11-21T06:05:19;7.15;;;2.33;;
35324;SDS011;35135;47.510;19.036;2023-11-21T06:07:46;6.22;;;2.42;;
35324;SDS011;35135;47.510;19.036;2023-11-21T06:10:11;5.80;;;2.13;;
35324;SDS011;35135;47.510;19.036;2023-11-21T06:12:39;8.25;;;1.73;;
35324;SDS011;35135;47.510;19.036;2023-11-21T06:15:07;6.65;;;2.30;;
35324;SDS011;35135;47.510;19.036;2023-11-21T06:17:34;9.93;;;2.78;;
35324;SDS011;35135;47.510;19.036;2023-11-21T06:20:04;13.23;;;3.03;;
35324;SDS011;35135;47.510;19.036;2023-11-21T06:22:34;13.88;;;3.22;;
35324;SDS011;35135;47.510;19.036;2023-11-21T06:25:02;18.55;;;3.15;;
35324;SDS011;35135;47.510;19.036;2023-11-21T06:27:29;12.77;;;3.05;;
35324;SDS011;35135;47.510;19.036;2023-11-21T06:29:56;10.68;;;3.08;;
35324;SDS011;35135;47.510;19.036;2023-11-21T06:32:21;12.93;;;2.95;;
35324;SDS011;35135;47.510;19.036;2023-11-21T06:34:47;9.38;;;2.42;;
35324;SDS011;35135;47.510;19.036;2023-11-21T06:37:14;16.33;;;3.42;;
35324;SDS011;35135;47.510;19.036;2023-11-21T06:39:40;8.90;;;2.65;;
35324;SDS011;35135;47.510;19.036;2023-11-21T06:42:06;13.27;;;3.63;;
35324;SDS011;35135;47.510;19.036;2023-11-21T06:44:32;11.00;;;3.90;;
35324;SDS011;35135;47.510;19.036;2023-11-21T06:46:58;10.60;;;3.65;;
35324;SDS011;35135;47.510;19.036;2023-11-21T06:49:24;11.00;;;3.50;;
35324;SDS011;35135;47.510;19.036;2023-11-21T06:51:50;7.18;;;2.80;;
35324;SDS011;35135;47.510;19.036;2023-11-21T06:54:16;7.53;;;3.20;;
35324;SDS011;35135;47.510;19.036;2023-11-21T06:56:42;7.68;;;3.47;;
35324;SDS011;35135;47.510;19.036;2023-11-21T06:59:07;10.75;;;3.38;;
35324;SDS011;35135;47.510;19.036;2023-11-21T07:01:34;9.45;;;3.15;;
35324;SDS011;35135;47.510;19.036;2023-11-21T07:04:04;6.63;;;2.95;;
35324;SDS011;35135;47.510;19.036;2023-11-21T07:06:31;6.95;;;2.58;;
35324;SDS011;35135;47.510;19.036;2023-11-21T07:08:57;6.63;;;3.00;;
35324;SDS011;35135;47.510;19.036;2023-11-21T07:11:23;10.13;;;3.15;;
35324;SDS011;35135;47.510;19.036;2023-11-21T07:13:50;6.80;;;3.42;;
35324;SDS011;35135;47.510;19.036;2023-11-21T07:16:16;9.80;;;3.15;;
35324;SDS011;35135;47.510;19.036;2023-11-21T07:18:41;8.73;;;3.03;;
35324;SDS011;35135;47.510;19.036;2023-11-21T07:21:07;7.18;;;3.03;;
35324;SDS011;35135;47.510;19.036;2023-11-21T07:23:33;7.50;;;3.28;;
35324;SDS011;35135;47.510;19.036;2023-11-21T07:25:59;10.93;;;5.90;;
35324;SDS011;35135;47.510;19.036;2023-11-21T07:28:25;8.32;;;4.90;;
35324;SDS011;35135;47.510;19.036;2023-11-21T07:30:51;8.93;;;4.60;;
35324;SDS011;35135;47.510;19.036;2023-11-21T07:33:17;9.35;;;3.92;;
35324;SDS011;35135;47.510;19.036;2023-11-21T07:35:43;30.73;;;6.38;;
35324;SDS011;35135;47.510;19.036;2023-11-21T07:38:09;26.60;;;6.03;;
35324;SDS011;35135;47.510;19.036;2023-11-21T07:40:34;24.05;;;7.05;;
35324;SDS011;35135;47.510;19.036;2023-11-21T07:43:00;24.55;;;5.32;;
35324;SDS011;35135;47.510;19.036;2023-11-21T07:45:26;18.92;;;8.10;;
35324;SDS011;35135;47.510;19.036;2023-11-21T07:47:53;16.88;;;7.35;;
35324;SDS011;35135;47.510;19.036;2023-11-21T07:50:20;13.75;;;6.65;;
35324;SDS011;35135;47.510;19.036;2023-11-21T07:52:47;12.27;;;5.97;;
35324;SDS011;35135;47.510;19.036;2023-11-21T07:55:14;16.48;;;7.22;;
35324;SDS011;35135;47.510;19.036;2023-11-21T07:57:41;13.70;;;6.63;;
35324;SDS011;35135;47.510;19.036;2023-11-21T08:00:06;15.40;;;5.50;;
35324;SDS011;35135;47.510;19.036;2023-11-21T08:02:34;12.23;;;5.60;;
35324;SDS011;35135;47.510;19.036;2023-11-21T08:05:00;17.13;;;6.03;;
35324;SDS011;35135;47.510;19.036;2023-11-21T08:07:25;11.52;;;5.65;;
35324;SDS011;35135;47.510;19.036;2023-11-21T08:09:51;10.05;;;5.65;;
35324;SDS011;35135;47.510;19.036;2023-11-21T08:12:17;11.57;;;5.53;;
35324;SDS011;35135;47.510;19.036;2023-11-21T08:14:45;12.95;;;6.10;;
35324;SDS011;35135;47.510;19.036;2023-11-21T08:17:10;20.75;;;6.03;;
35324;SDS011;35135;47.510;19.036;2023-11-21T08:19:36;14.05;;;5.38;;
35324;SDS011;35135;47.510;19.036;2023-11-21T08:22:03;15.75;;;5.75;;
35324;SDS011;35135;47.510;19.036;2023-11-21T08:24:29;12.45;;;6.13;;
35324;SDS011;35135;47.510;19.036;2023-11-21T08:26:54;14.25;;;5.55;;
35324;SDS011;35135;47.510;19.036;2023-11-21T08:29:21;13.73;;;5.10;;
35324;SDS011;35135;47.510;19.036;2023-11-21T08:31:48;12.65;;;5.47;;
35324;SDS011;35135;47.510;19.036;2023-11-21T08:34:13;14.15;;;5.68;;
35324;SDS011;35135;47.510;19.036;2023-11-21T08:36:43;15.70;;;5.90;;
35324;SDS011;35135;47.510;19.036;2023-11-21T08:39:09;42.38;;;8.50;;
35324;SDS011;35135;47.510;19.036;2023-11-21T08:41:38;19.63;;;6.53;;
35324;SDS011;35135;47.510;19.036;2023-11-21T08:44:04;24.42;;;6.95;;
35324;SDS011;35135;47.510;19.036;2023-11-21T08:46:33;26.55;;;6.70;;
35324;SDS011;35135;47.510;19.036;2023-11-21T08:49:00;20.52;;;6.00;;
35324;SDS011;35135;47.510;19.036;2023-11-21T08:51:26;17.88;;;5.13;;
35324;SDS011;35135;47.510;19.036;2023-11-21T08:53:52;22.73;;;5.53;;
35324;SDS011;35135;47.510;19.036;2023-11-21T08:56:18;23.75;;;5.72;;
35324;SDS011;35135;47.510;19.036;2023-11-21T08:58:45;15.68;;;5.90;;
35324;SDS011;35135;47.510;19.036;2023-11-21T09:01:15;16.23;;;5.10;;
35324;SDS011;35135;47.510;19.036;2023-11-21T09:03:42;17.00;;;4.90;;
35324;SDS011;35135;47.510;19.036;2023-11-21T09:06:08;13.07;;;5.20;;
35324;SDS011;35135;47.510;19.036;2023-11-21T09:08:35;15.13;;;5.32;;
35324;SDS011;35135;47.510;19.036;2023-11-21T09:11:00;12.63;;;5.05;;
35324;SDS011;35135;47.510;19.036;2023-11-21T09:13:26;11.75;;;4.38;;
35324;SDS011;35135;47.510;19.036;2023-11-21T09:15:52;11.70;;;4.60;;
35324;SDS011;35135;47.510;19.036;2023-11-21T09:18:18;12.02;;;4.82;;
35324;SDS011;35135;47.510;19.036;2023-11-21T09:20:44;17.55;;;5.60;;
35324;SDS011;35135;47.510;19.036;2023-11-21T09:23:09;11.45;;;4.72;;
35324;SDS011;35135;47.510;19.036;2023-11-21T09:25:35;11.60;;;4.63;;
35324;SDS011;35135;47.510;19.036;2023-11-21T09:28:02;14.57;;;4.60;;
35324;SDS011;35135;47.510;19.036;2023-11-21T09:30:33;7.03;;;4.18;;
35324;SDS011;35135;47.510;19.036;2023-11-21T09:33:02;11.15;;;4.50;;
35324;SDS011;35135;47.510;19.036;2023-11-21T09:35:30;11.82;;;5.22;;
35324;SDS011;35135;47.510;19.036;2023-11-21T09:37:56;10.45;;;4.85;;
35324;SDS011;35135;47.510;19.036;2023-11-21T09:40:22;8.80;;;5.13;;
35324;SDS011;35135;47.510;19.036;2023-11-21T09:45:29;11.60;;;6.40;;
35324;SDS011;35135;47.510;19.036;2023-11-21T09:48:00;11.07;;;7.30;;
35324;SDS011;35135;47.510;19.036;2023-11-21T09:50:26;14.05;;;8.50;;
35324;SDS011;35135;47.510;19.036;2023-11-21T09:55:18;14.27;;;11.25;;
35324;SDS011;35135;47.510;19.036;2023-11-21T09:57:47;14.95;;;11.38;;
35324;SDS011;35135;47.510;19.036;2023-11-21T10:00:14;16.50;;;13.70;;
35324;SDS011;35135;47.510;19.036;2023-11-21T10:02:42;16.67;;;13.13;;
35324;SDS011;35135;47.510;19.036;2023-11-21T10:05:08;18.10;;;14.15;;
35324;SDS011;35135;47.510;19.036;2023-11-21T10:07:37;18.52;;;16.33;;
35324;SDS011;35135;47.510;19.036;2023-11-21T10:10:06;18.23;;;14.70;;
35324;SDS011;35135;47.510;19.036;2023-11-21T10:12:33;20.50;;;18.25;;
35324;SDS011;35135;47.510;19.036;2023-11-21T10:15:00;18.73;;;16.13;;
35324;SDS011;35135;47.510;19.036;2023-11-21T10:17:28;28.27;;;18.27;;
35324;SDS011;35135;47.510;19.036;2023-11-21T10:19:57;19.27;;;17.20;;
35324;SDS011;35135;47.510;19.036;2023-11-21T10:22:23;24.30;;;21.15;;
35324;SDS011;35135;47.510;19.036;2023-11-21T10:24:49;23.23;;;20.45;;
35324;SDS011;35135;47.510;19.036;2023-11-21T10:27:15;24.17;;;21.48;;
35324;SDS011;35135;47.510;19.036;2023-11-21T10:29:41;28.95;;;25.23;;
35324;SDS011;35135;47.510;19.036;2023-11-21T10:32:07;29.45;;;24.40;;
35324;SDS011;35135;47.510;19.036;2023-11-21T10:34:32;31.90;;;28.23;;
35324;SDS011;35135;47.510;19.036;2023-11-21T10:36:59;32.30;;;28.75;;
35324;SDS011;35135;47.510;19.036;2023-11-21T10:39:40;35.00;;;28.98;;
35324;SDS011;35135;47.510;19.036;2023-11-21T10:42:09;34.20;;;27.35;;
35324;SDS011;35135;47.510;19.036;2023-11-21T10:44:35;33.67;;;30.05;;
35324;SDS011;35135;47.510;19.036;2023-11-21T10:47:02;37.85;;;32.90;;
35324;SDS011;35135;47.510;19.036;2023-11-21T10:49:28;38.47;;;34.17;;
35324;SDS011;35135;47.510;19.036;2023-11-21T10:51:54;37.00;;;33.25;;
35324;SDS011;35135;47.510;19.036;2023-11-21T10:54:21;38.83;;;34.92;;
35324;SDS011;35135;47.510;19.036;2023-11-21T10:57:06;37.90;;;34.10;;
35324;SDS011;35135;47.510;19.036;2023-11-21T10:59:32;41.45;;;35.72;;
35324;SDS011;35135;47.510;19.036;2023-11-21T11:01:58;39.38;;;35.17;;
35324;SDS011;35135;47.510;19.036;2023-11-21T11:04:26;41.00;;;35.65;;
35324;SDS011;35135;47.510;19.036;2023-11-21T11:07:01;41.40;;;36.53;;
35324;SDS011;35135;47.510;19.036;2023-11-21T11:09:28;39.40;;;35.30;;
35324;SDS011;35135;47.510;19.036;2023-11-21T11:11:58;39.53;;;35.33;;
35324;SDS011;35135;47.510;19.036;2023-11-21T11:14:24;36.63;;;32.78;;
35324;SDS011;35135;47.510;19.036;2023-11-21T11:16:53;38.05;;;34.00;;
35324;SDS011;35135;47.510;19.036;2023-11-21T11:19:21;36.08;;;32.38;;
35324;SDS011;35135;47.510;19.036;2023-11-21T11:21:51;34.88;;;31.27;;
35324;SDS011;35135;47.510;19.036;2023-11-21T11:26:59;31.97;;;28.60;;
35324;SDS011;35135;47.510;19.036;2023-11-21T11:29:40;31.35;;;28.15;;
35324;SDS011;35135;47.510;19.036;2023-11-21T11:32:28;29.10;;;26.15;;
35324;SDS011;35135;47.510;19.036;2023-11-21T11:35:07;29.17;;;26.08;;
35324;SDS011;35135;47.510;19.036;2023-11-21T11:37:41;28.27;;;25.40;;
35324;SDS011;35135;47.510;19.036;2023-11-21T11:40:10;27.73;;;25.00;;
35324;SDS011;35135;47.510;19.036;2023-11-21T11:42:36;26.60;;;23.85;;
35324;SDS011;35135;47.510;19.036;2023-11-21T11:45:02;25.92;;;23.17;;
35324;SDS011;35135;47.510;19.036;2023-11-21T11:47:43;24.38;;;21.98;;
35324;SDS011;35135;47.510;19.036;2023-11-21T11:50:10;24.58;;;22.08;;
35324;SDS011;35135;47.510;19.036;2023-11-21T11:52:51;24.27;;;21.80;;
35324;SDS011;35135;47.510;19.036;2023-11-21T11:55:23;21.90;;;19.60;;
35324;SDS011;35135;47.510;19.036;2023-11-21T11:57:53;20.80;;;18.70;;
35324;SDS011;35135;47.510;19.036;2023-11-21T12:02:56;19.75;;;17.85;;
35324;SDS011;35135;47.510;19.036;2023-11-21T12:05:24;19.80;;;16.95;;
35324;SDS011;35135;47.510;19.036;2023-11-21T12:07:53;19.33;;;17.40;;
35324;SDS011;35135;47.510;19.036;2023-11-21T12:10:23;18.60;;;16.70;;
35324;SDS011;35135;47.510;19.036;2023-11-21T12:12:54;18.13;;;16.33;;
35324;SDS011;35135;47.510;19.036;2023-11-21T12:15:24;15.77;;;14.18;;
35324;SDS011;35135;47.510;19.036;2023-11-21T12:17:50;16.73;;;14.82;;
35324;SDS011;35135;47.510;19.036;2023-11-21T12:20:20;15.77;;;14.07;;
35324;SDS011;35135;47.510;19.036;2023-11-21T12:22:48;12.70;;;11.40;;
35324;SDS011;35135;47.510;19.036;2023-11-21T12:27:44;12.65;;;11.35;;
35324;SDS011;35135;47.510;19.036;2023-11-21T12:30:15;12.90;;;11.60;;
35324;SDS011;35135;47.510;19.036;2023-11-21T12:32:47;11.80;;;10.60;;
35324;SDS011;35135;47.510;19.036;2023-11-21T12:35:17;11.30;;;10.15;;
35324;SDS011;35135;47.510;19.036;2023-11-21T12:37:44;10.73;;;8.82;;
35324;SDS011;35135;47.510;19.036;2023-11-21T12:40:10;10.45;;;9.38;;
35324;SDS011;35135;47.510;19.036;2023-11-21T12:42:39;10.35;;;9.25;;
35324;SDS011;35135;47.510;19.036;2023-11-21T12:47:42;11.35;;;8.90;;
35324;SDS011;35135;47.510;19.036;2023-11-21T12:50:10;11.52;;;8.30;;
35324;SDS011;35135;47.510;19.036;2023-11-21T12:52:43;11.75;;;8.90;;
35324;SDS011;35135;47.510;19.036;2023-11-21T12:55:16;11.85;;;8.88;;
35324;SDS011;35135;47.510;19.036;2023-11-21T12:57:47;10.85;;;8.05;;
35324;SDS011;35135;47.510;19.036;2023-11-21T13:00:19;10.90;;;7.80;;
35324;SDS011;35135;47.510;19.036;2023-11-21T13:02:54;9.30;;;8.20;;
35324;SDS011;35135;47.510;19.036;2023-11-21T13:05:24;8.68;;;7.78;;
35324;SDS011;35135;47.510;19.036;2023-11-21T13:07:50;9.30;;;7.80;;
35324;SDS011;35135;47.510;19.036;2023-11-21T13:10:19;12.30;;;8.60;;
35324;SDS011;35135;47.510;19.036;2023-11-21T13:12:55;11.10;;;7.68;;
35324;SDS011;35135;47.510;19.036;2023-11-21T13:15:26;8.73;;;7.40;;
35324;SDS011;35135;47.510;19.036;2023-11-21T13:17:52;8.98;;;7.05;;
35324;SDS011;35135;47.510;19.036;2023-11-21T13:20:19;8.10;;;7.18;;
35324;SDS011;35135;47.510;19.036;2023-11-21T13:22:52;8.80;;;6.80;;
35324;SDS011;35135;47.510;19.036;2023-11-21T13:25:22;9.18;;;7.80;;
35324;SDS011;35135;47.510;19.036;2023-11-21T13:27:49;8.00;;;7.07;;
35324;SDS011;35135;47.510;19.036;2023-11-21T13:30:16;7.60;;;6.30;;
35324;SDS011;35135;47.510;19.036;2023-11-21T13:32:43;8.60;;;6.63;;
35324;SDS011;35135;47.510;19.036;2023-11-21T13:35:09;7.57;;;6.72;;
35324;SDS011;35135;47.510;19.036;2023-11-21T13:37:46;7.28;;;6.57;;
35324;SDS011;35135;47.510;19.036;2023-11-21T13:42:50;8.73;;;6.05;;
35324;SDS011;35135;47.510;19.036;2023-11-21T13:45:18;6.80;;;5.90;;
35324;SDS011;35135;47.510;19.036;2023-11-21T13:47:46;8.07;;;5.88;;
35324;SDS011;35135;47.510;19.036;2023-11-21T13:50:12;10.98;;;5.82;;
35324;SDS011;35135;47.510;19.036;2023-11-21T13:52:44;6.93;;;6.03;;
35324;SDS011;35135;47.510;19.036;2023-11-21T13:55:12;7.95;;;6.25;;
35324;SDS011;35135;47.510;19.036;2023-11-21T13:57:41;10.50;;;6.32;;
35324;SDS011;35135;47.510;19.036;2023-11-21T14:00:11;7.13;;;6.18;;
35324;SDS011;35135;47.510;19.036;2023-11-21T14:02:57;10.05;;;5.30;;
35324;SDS011;35135;47.510;19.036;2023-11-21T14:05:25;7.45;;;5.28;;
35324;SDS011;35135;47.510;19.036;2023-11-21T14:07:54;8.32;;;6.28;;
35324;SDS011;35135;47.510;19.036;2023-11-21T14:10:32;12.77;;;6.07;;
35324;SDS011;35135;47.510;19.036;2023-11-21T14:13:05;10.43;;;5.45;;
35324;SDS011;35135;47.510;19.036;2023-11-21T14:15:31;9.57;;;5.55;;
35324;SDS011;35135;47.510;19.036;2023-11-21T14:18:02;12.68;;;5.47;;
35324;SDS011;35135;47.510;19.036;2023-11-21T14:20:32;10.90;;;5.25;;
35324;SDS011;35135;47.510;19.036;2023-11-21T14:23:01;11.18;;;5.70;;
35324;SDS011;35135;47.510;19.036;2023-11-21T14:25:26;9.20;;;5.28;;
35324;SDS011;35135;47.510;19.036;2023-11-21T14:27:53;12.50;;;5.28;;
35324;SDS011;35135;47.510;19.036;2023-11-21T14:30:19;7.05;;;4.95;;
35324;SDS011;35135;47.510;19.036;2023-11-21T14:32:47;8.10;;;5.00;;
35324;SDS011;35135;47.510;19.036;2023-11-21T14:35:13;8.88;;;5.10;;
35324;SDS011;35135;47.510;19.036;2023-11-21T14:37:40;14.02;;;5.43;;
35324;SDS011;35135;47.510;19.036;2023-11-21T14:40:05;7.82;;;4.50;;
35324;SDS011;35135;47.510;19.036;2023-11-21T14:42:32;9.43;;;4.57;;
35324;SDS011;35135;47.510;19.036;2023-11-21T14:44:59;8.25;;;4.32;;